createdAt,value
2018-04-14T00:00:38.093Z,9.90
2018-04-14T00:03:05.632Z,9.90
2018-04-14T00:05:33.143Z,10.00
2018-04-14T00:08:01.454Z,10.20
2018-04-14T00:10:28.962Z,10.20
2018-04-14T00:12:56.501Z,10.20
2018-04-14T00:15:24.049Z,10.30
2018-04-14T00:17:52.361Z,10.50
2018-04-14T00:20:19.869Z,10.50
2018-04-14T00:22:47.409Z,10.60
2018-04-14T00:25:15.001Z,10.60
2018-04-14T00:27:42.546Z,10.70
2018-04-14T00:30:10.065Z,10.70
2018-04-14T00:32:37.612Z,10.60
2018-04-14T00:35:05.133Z,10.70
2018-04-14T00:37:33.443Z,10.70
2018-04-14T00:40:01.125Z,10.70
2018-04-14T00:42:28.644Z,10.70
2018-04-14T00:44:56.164Z,10.80
2018-04-14T00:47:23.697Z,10.80
2018-04-14T00:49:51.217Z,10.90
2018-04-14T00:52:18.758Z,10.90
2018-04-14T00:54:47.065Z,11.00
2018-04-14T00:57:14.595Z,11.00
2018-04-14T00:59:42.284Z,11.00
2018-04-14T01:02:10.608Z,11.00
2018-04-14T01:04:38.145Z,11.00
2018-04-14T01:07:05.749Z,11.00
2018-04-14T01:09:33.329Z,10.90
2018-04-14T01:12:01.093Z,10.80
2018-04-14T01:14:29.630Z,10.80
2018-04-14T01:16:57.622Z,10.60
2018-04-14T01:19:25.162Z,10.50
2018-04-14T01:21:52.680Z,10.40
2018-04-14T01:24:20.209Z,10.20
2018-04-14T01:26:47.749Z,10.10
2018-04-14T01:29:16.073Z,10.00
2018-04-14T01:31:54.181Z,10.00
2018-04-14T01:34:21.741Z,10.00
2018-04-14T01:36:49.287Z,10.00
2018-04-14T01:39:16.857Z,10.00
2018-04-14T01:41:44.404Z,10.00
2018-04-14T01:44:12.005Z,10.10
2018-04-14T01:46:40.353Z,10.10
2018-04-14T01:49:07.882Z,10.10
2018-04-14T01:51:35.410Z,10.20
2018-04-14T01:54:02.950Z,10.30
2018-04-14T01:56:30.476Z,10.40
2018-04-14T01:58:58.033Z,10.50
2018-04-14T02:01:25.580Z,10.50
2018-04-14T02:03:53.106Z,10.50
2018-04-14T02:06:21.420Z,10.40
2018-04-14T02:08:48.925Z,10.40
2018-04-14T02:11:16.468Z,10.50
2018-04-14T02:13:44.006Z,10.50
2018-04-14T02:16:12.317Z,10.70
2018-04-14T02:18:39.885Z,10.70
2018-04-14T02:21:07.419Z,10.80
2018-04-14T02:23:34.964Z,10.80
2018-04-14T02:26:02.514Z,10.80
2018-04-14T02:28:30.029Z,10.70
2018-04-14T02:30:57.573Z,10.80
2018-04-14T02:33:25.089Z,10.70
2018-04-14T02:35:52.666Z,10.60
2018-04-14T02:38:20.214Z,10.50
2018-04-14T02:40:47.757Z,10.30
2018-04-14T02:43:15.289Z,10.20
2018-04-14T02:45:43.612Z,10.00
2018-04-14T02:48:11.140Z,9.90
2018-04-14T02:50:39.460Z,9.80
2018-04-14T02:53:06.978Z,9.80
2018-04-14T02:55:34.759Z,9.70
2018-04-14T02:58:02.285Z,9.60
2018-04-14T03:00:29.829Z,9.50
2018-04-14T03:02:58.133Z,9.40
2018-04-14T03:05:25.711Z,9.40
2018-04-14T03:07:53.477Z,9.30
2018-04-14T03:10:21.791Z,9.20
2018-04-14T03:12:49.355Z,9.10
2018-04-14T03:15:16.906Z,9.10
2018-04-14T03:17:44.500Z,9.00
2018-04-14T03:20:12.023Z,9.00
2018-04-14T03:22:40.349Z,8.80
2018-04-14T03:25:07.865Z,8.80
2018-04-14T03:27:35.418Z,8.70
2018-04-14T03:30:02.965Z,8.70
2018-04-14T03:32:30.517Z,8.60
2018-04-14T03:34:58.818Z,8.60
2018-04-14T03:37:27.110Z,8.80
2018-04-14T03:39:55.389Z,8.90
2018-04-14T03:42:23.701Z,9.00
2018-04-14T03:44:51.211Z,9.00
2018-04-14T03:47:18.781Z,9.10
2018-04-14T03:49:46.311Z,9.30
2018-04-14T03:52:13.854Z,9.30
2018-04-14T03:54:41.386Z,9.30
2018-04-14T03:57:08.929Z,9.40
2018-04-14T03:59:36.464Z,9.50
2018-04-14T04:02:04.010Z,9.50
2018-04-14T04:04:31.545Z,9.50
2018-04-14T04:06:59.102Z,9.50
2018-04-14T04:09:27.409Z,9.50
2018-04-14T04:11:54.921Z,9.50
2018-04-14T04:14:22.457Z,9.60
2018-04-14T04:16:49.964Z,9.60
2018-04-14T04:19:29.311Z,9.60
2018-04-14T04:22:08.618Z,9.70
2018-04-14T04:24:47.960Z,9.60
2018-04-14T04:27:15.523Z,9.60
2018-04-14T04:29:43.368Z,9.60
2018-04-14T04:32:11.395Z,9.60
2018-04-14T04:34:39.679Z,9.60
2018-04-14T04:37:07.487Z,9.70
2018-04-14T04:39:35.105Z,9.70
2018-04-14T04:42:02.705Z,9.70
2018-04-14T04:44:30.271Z,9.70
2018-04-14T04:46:58.558Z,9.70
2018-04-14T04:49:26.887Z,9.70
2018-04-14T04:51:54.384Z,9.70
2018-04-14T04:54:21.932Z,9.70
2018-04-14T04:56:49.457Z,9.60
2018-04-14T04:59:17.802Z,9.50
2018-04-14T05:01:45.351Z,9.40
2018-04-14T05:04:12.893Z,9.40
2018-04-14T05:06:41.194Z,9.40
2018-04-14T05:11:42.727Z,9.40
2018-04-14T05:14:10.261Z,9.50
2018-04-14T05:16:37.949Z,9.50
2018-04-14T05:19:05.552Z,9.50
2018-04-14T05:21:33.111Z,9.60
2018-04-14T05:24:00.651Z,9.60
2018-04-14T05:26:28.190Z,9.70
2018-04-14T05:28:56.525Z,9.60
2018-04-14T05:31:24.929Z,9.60
2018-04-14T05:33:52.485Z,9.60
2018-04-14T05:36:20.014Z,9.60
2018-04-14T05:38:57.922Z,9.60
2018-04-14T05:41:25.448Z,9.60
2018-04-14T05:43:52.971Z,9.70
2018-04-14T05:46:20.518Z,9.80
2018-04-14T05:48:48.031Z,9.90
2018-04-14T05:51:15.618Z,10.00
2018-04-14T05:53:43.156Z,10.10
2018-04-14T05:56:10.815Z,10.20
2018-04-14T05:58:38.384Z,10.30
2018-04-14T06:01:05.944Z,10.40
2018-04-14T06:03:33.501Z,10.70
2018-04-14T06:06:01.048Z,11.20
2018-04-14T06:08:29.345Z,12.20
2018-04-14T06:10:56.906Z,12.20
2018-04-14T06:13:25.203Z,13.60
2018-04-14T06:15:53.513Z,14.30
2018-04-14T06:18:21.021Z,14.20
2018-04-14T06:20:48.549Z,14.70
2018-04-14T06:23:16.062Z,14.90
2018-04-14T06:25:43.605Z,15.20
2018-04-14T06:28:11.158Z,16.10
2018-04-14T06:30:39.476Z,16.40
2018-04-14T06:33:06.997Z,16.40
2018-04-14T06:35:35.316Z,15.70
2018-04-14T06:38:02.950Z,15.70
2018-04-14T06:40:30.492Z,15.70
2018-04-14T06:42:58.028Z,15.40
2018-04-14T06:45:25.570Z,15.50
2018-04-14T06:47:53.927Z,15.50
2018-04-14T06:50:21.442Z,15.50
2018-04-14T06:52:49.841Z,15.30
2018-04-14T06:55:18.180Z,15.80
2018-04-14T06:57:45.728Z,15.80
2018-04-14T07:00:13.319Z,16.40
2018-04-14T07:02:40.836Z,16.70
2018-04-14T07:05:09.117Z,19.20
2018-04-14T07:07:37.453Z,20.00
2018-04-14T07:10:04.995Z,20.00
2018-04-14T07:12:33.317Z,20.80
2018-04-14T07:15:00.880Z,20.80
2018-04-14T07:17:28.430Z,21.70
2018-04-14T07:19:56.000Z,22.30
2018-04-14T07:22:24.326Z,21.00
2018-04-14T07:24:51.840Z,21.00
2018-04-14T07:27:19.598Z,20.10
2018-04-14T07:29:47.143Z,20.30
2018-04-14T07:32:14.869Z,21.10
2018-04-14T07:34:42.852Z,22.20
2018-04-14T07:37:10.540Z,23.50
2018-04-14T07:39:38.877Z,23.30
2018-04-14T07:42:06.413Z,23.30
2018-04-14T07:44:34.004Z,23.80
2018-04-14T07:47:01.597Z,23.60
2018-04-14T07:49:29.156Z,24.80
2018-04-14T07:51:56.696Z,25.70
2018-04-14T07:54:24.332Z,26.60
2018-04-14T07:56:51.915Z,27.50
2018-04-14T07:59:21.250Z,26.70
2018-04-14T08:01:48.880Z,26.30
2018-04-14T08:04:16.443Z,26.40
2018-04-14T08:06:43.988Z,28.10
2018-04-14T08:09:11.553Z,26.60
2018-04-14T08:11:39.135Z,25.40
2018-04-14T08:14:06.644Z,25.10
2018-04-14T08:16:34.182Z,24.60
2018-04-14T08:19:01.749Z,23.00
2018-04-14T08:21:29.319Z,21.40
2018-04-14T08:23:56.836Z,21.80
2018-04-14T08:26:25.172Z,21.00
2018-04-14T08:28:52.919Z,21.00
2018-04-14T08:31:20.445Z,20.50
2018-04-14T08:33:58.561Z,20.40
2018-04-14T08:36:26.103Z,20.10
2018-04-14T08:38:54.399Z,20.30
2018-04-14T08:41:22.685Z,20.00
2018-04-14T08:43:50.956Z,20.40
2018-04-14T08:46:18.647Z,20.40
2018-04-14T08:48:46.940Z,21.30
2018-04-14T08:51:14.485Z,21.20
2018-04-14T08:53:42.055Z,21.80
2018-04-14T08:56:09.588Z,21.50
2018-04-14T08:58:37.098Z,21.20
2018-04-14T09:01:04.724Z,20.50
2018-04-14T09:03:32.230Z,20.40
2018-04-14T09:05:59.784Z,20.20
2018-04-14T09:08:27.304Z,21.30
2018-04-14T09:10:55.621Z,20.60
2018-04-14T09:13:23.154Z,20.60
2018-04-14T09:15:51.452Z,20.10
2018-04-14T09:18:19.744Z,20.10
2018-04-14T09:20:50.346Z,20.40
2018-04-14T09:23:17.859Z,20.40
2018-04-14T09:25:46.240Z,21.80
2018-04-14T09:28:14.519Z,21.70
2018-04-14T09:30:42.049Z,21.70
2018-04-14T09:33:09.553Z,22.10
2018-04-14T09:35:37.081Z,22.50
2018-04-14T09:38:04.638Z,22.80
2018-04-14T09:40:32.255Z,23.00
2018-04-14T09:42:59.814Z,22.30
2018-04-14T09:45:27.325Z,22.80
2018-04-14T09:47:54.872Z,22.70
2018-04-14T09:50:22.392Z,23.70
2018-04-14T09:52:53.552Z,24.30
2018-04-14T09:55:21.060Z,24.30
2018-04-14T09:57:48.589Z,23.50
2018-04-14T10:00:21.886Z,23.20
2018-04-14T10:02:50.255Z,22.00
2018-04-14T10:05:17.755Z,22.00
2018-04-14T10:07:46.094Z,20.80
2018-04-14T10:10:13.594Z,20.80
2018-04-14T10:12:41.900Z,20.80
2018-04-14T10:15:10.212Z,21.50
2018-04-14T10:17:37.814Z,21.50
2018-04-14T10:20:05.436Z,21.00
2018-04-14T10:22:33.749Z,19.30
2018-04-14T10:25:01.261Z,19.20
2018-04-14T10:27:28.784Z,19.00
2018-04-14T10:29:56.297Z,19.00
2018-04-14T10:32:23.970Z,19.20
2018-04-14T10:34:51.479Z,18.90
2018-04-14T10:37:19.808Z,19.50
2018-04-14T10:39:47.330Z,19.50
2018-04-14T10:42:15.648Z,20.90
2018-04-14T10:44:43.161Z,20.90
2018-04-14T10:47:10.714Z,21.30
2018-04-14T10:49:38.258Z,22.00
2018-04-14T10:52:06.549Z,22.00
2018-04-14T10:54:34.922Z,21.20
2018-04-14T10:57:03.316Z,20.90
2018-04-14T10:59:31.763Z,21.70
2018-04-14T11:01:59.585Z,21.60
2018-04-14T11:04:28.063Z,21.80
2018-04-14T11:06:55.791Z,21.80
2018-04-14T11:09:24.476Z,21.30
2018-04-14T11:11:52.128Z,21.70
2018-04-14T11:14:20.623Z,21.20
2018-04-14T11:16:50.061Z,21.10
2018-04-14T11:19:17.674Z,20.70
2018-04-14T11:21:45.287Z,20.70
2018-04-14T11:24:13.699Z,20.20
2018-04-14T11:26:41.228Z,20.20
2018-04-14T11:29:08.796Z,20.40
2018-04-14T11:31:36.670Z,20.20
2018-04-14T11:34:05.345Z,19.80
2018-04-14T11:36:38.219Z,19.80
2018-04-14T11:39:05.857Z,20.10
2018-04-14T11:41:33.490Z,19.90
2018-04-14T11:44:01.065Z,19.80
2018-04-14T11:46:28.772Z,20.00
2018-04-14T11:48:56.312Z,20.20
2018-04-14T11:51:23.997Z,20.10
2018-04-14T11:53:51.555Z,19.90
2018-04-14T11:56:19.136Z,20.20
2018-04-14T11:58:46.737Z,20.00
2018-04-14T12:01:14.392Z,19.50
2018-04-14T12:03:41.972Z,18.90
2018-04-14T12:06:09.537Z,18.80
2018-04-14T12:08:37.271Z,18.90
2018-04-14T12:11:04.845Z,19.20
2018-04-14T12:13:32.442Z,19.50
2018-04-14T12:16:00.029Z,19.80
2018-04-14T12:18:27.578Z,19.80
2018-04-14T12:20:55.114Z,19.80
2018-04-14T12:23:23.502Z,20.00
2018-04-14T12:25:51.105Z,19.90
2018-04-14T12:28:18.765Z,19.80
2018-04-14T12:30:46.356Z,20.10
2018-04-14T12:33:13.875Z,20.10
2018-04-14T12:35:41.627Z,20.40
2018-04-14T12:38:09.170Z,20.60
2018-04-14T12:40:36.757Z,20.40
2018-04-14T12:43:04.445Z,20.40
2018-04-14T12:45:32.109Z,20.50
2018-04-14T12:47:59.850Z,20.50
2018-04-14T12:50:28.220Z,20.30
2018-04-14T12:52:55.813Z,20.30
2018-04-14T12:55:24.152Z,19.80
2018-04-14T12:57:51.799Z,19.80
2018-04-14T13:00:20.070Z,19.80
2018-04-14T13:02:48.536Z,19.40
2018-04-14T13:05:17.378Z,19.40
2018-04-14T13:07:44.941Z,19.30
2018-04-14T13:10:13.314Z,20.10
2018-04-14T13:12:41.629Z,20.20
2018-04-14T13:15:09.223Z,20.20
2018-04-14T13:17:36.951Z,20.30
2018-04-14T13:20:04.610Z,20.10
2018-04-14T13:22:32.206Z,20.20
2018-04-14T13:25:00.513Z,19.50
2018-04-14T13:27:28.087Z,19.50
2018-04-14T13:29:55.592Z,19.30
2018-04-14T13:32:23.155Z,19.40
2018-04-14T13:34:50.708Z,19.80
2018-04-14T13:37:18.594Z,20.40
2018-04-14T13:39:46.129Z,20.30
2018-04-14T13:42:14.427Z,20.60
2018-04-14T13:44:42.717Z,20.30
2018-04-14T13:47:11.047Z,20.40
2018-04-14T13:49:38.590Z,20.40
2018-04-14T13:52:06.169Z,20.20
2018-04-14T13:54:33.675Z,19.80
2018-04-14T13:57:01.295Z,20.20
2018-04-14T13:59:29.577Z,19.80
2018-04-14T14:01:57.868Z,19.50
2018-04-14T14:04:26.177Z,19.40
2018-04-14T14:06:53.777Z,19.40
2018-04-14T14:09:21.324Z,19.00
2018-04-14T14:11:48.885Z,19.30
2018-04-14T14:14:17.172Z,19.50
2018-04-14T14:16:44.857Z,19.50
2018-04-14T14:19:12.380Z,19.50
2018-04-14T14:21:39.888Z,19.40
2018-04-14T14:24:08.207Z,19.20
2018-04-14T14:26:35.707Z,19.20
2018-04-14T14:29:03.235Z,19.20
2018-04-14T14:31:30.749Z,19.20
2018-04-14T14:33:58.375Z,19.30
2018-04-14T14:36:25.948Z,19.50
2018-04-14T14:38:53.518Z,19.10
2018-04-14T14:41:21.036Z,19.40
2018-04-14T14:43:48.553Z,19.60
2018-04-14T14:46:16.823Z,19.90
2018-04-14T14:48:44.411Z,19.90
2018-04-14T14:51:12.700Z,19.80
2018-04-14T14:53:40.984Z,19.90
2018-04-14T14:56:09.284Z,19.50
2018-04-14T14:58:36.811Z,19.50
2018-04-14T15:01:04.316Z,19.40
2018-04-14T15:03:32.617Z,19.90
2018-04-14T15:06:00.120Z,19.90
2018-04-14T15:08:27.648Z,19.90
2018-04-14T15:10:55.950Z,19.70
2018-04-14T15:13:24.230Z,20.00
2018-04-14T15:15:52.523Z,20.30
2018-04-14T15:18:20.816Z,20.40
2018-04-14T15:20:49.108Z,20.80
2018-04-14T15:23:17.384Z,21.00
2018-04-14T15:25:45.681Z,21.20
2018-04-14T15:28:13.949Z,21.00
2018-04-14T15:30:41.548Z,21.00
2018-04-14T15:33:09.823Z,20.40
2018-04-14T15:35:38.142Z,20.30
2018-04-14T15:38:05.754Z,20.30
2018-04-14T15:40:33.420Z,20.10
2018-04-14T15:43:01.016Z,20.10
2018-04-14T15:45:28.561Z,20.10
2018-04-14T15:47:56.076Z,20.10
2018-04-14T15:50:23.672Z,20.00
2018-04-14T15:52:51.348Z,19.70
2018-04-14T15:55:18.991Z,19.50
2018-04-14T15:57:47.722Z,19.40
2018-04-14T16:00:15.424Z,19.40
2018-04-14T16:02:43.264Z,19.40
2018-04-14T16:05:11.029Z,19.40
2018-04-14T16:07:39.514Z,19.30
2018-04-14T16:10:08.096Z,19.30
2018-04-14T16:12:35.649Z,19.30
2018-04-14T16:15:03.216Z,19.40
2018-04-14T16:17:30.831Z,19.40
2018-04-14T16:19:59.345Z,19.20
2018-04-14T16:22:26.888Z,19.20
2018-04-14T16:24:54.631Z,19.10
2018-04-14T16:27:22.244Z,19.10
2018-04-14T16:29:49.852Z,19.00
2018-04-14T16:32:17.454Z,18.80
2018-04-14T16:34:45.157Z,18.80
2018-04-14T16:37:12.699Z,18.80
2018-04-14T16:39:40.209Z,18.80
2018-04-14T16:42:08.491Z,18.60
2018-04-14T16:44:36.089Z,18.60
2018-04-14T16:47:03.616Z,18.50
2018-04-14T16:49:31.229Z,18.50
2018-04-14T16:51:59.524Z,18.40
2018-04-14T16:54:27.817Z,18.30
2018-04-14T16:56:55.393Z,18.30
2018-04-14T16:59:22.911Z,18.30
2018-04-14T17:01:50.437Z,18.20
2018-04-14T17:04:17.995Z,18.10
2018-04-14T17:06:45.591Z,18.00
2018-04-14T17:09:13.104Z,18.00
2018-04-14T17:11:40.708Z,18.00
2018-04-14T17:14:08.996Z,17.90
2018-04-14T17:16:37.383Z,17.80
2018-04-14T17:19:05.653Z,17.60
2018-04-14T17:21:33.172Z,17.60
2018-04-14T17:24:00.706Z,17.60
2018-04-14T17:26:29.016Z,17.50
2018-04-14T17:28:57.305Z,17.50
2018-04-14T17:31:25.587Z,17.40
2018-04-14T17:33:53.871Z,17.40
2018-04-14T17:36:21.393Z,17.40
2018-04-14T17:38:49.022Z,17.40
2018-04-14T17:41:17.301Z,17.30
2018-04-14T17:43:45.611Z,17.20
2018-04-14T17:46:13.172Z,17.20
2018-04-14T17:48:41.464Z,17.20
2018-04-14T17:51:09.733Z,17.10
2018-04-14T17:53:37.323Z,17.10
2018-04-14T17:56:05.600Z,17.00
2018-04-14T17:58:33.899Z,17.00
2018-04-14T18:01:02.168Z,16.90
2018-04-14T18:03:29.700Z,16.90
2018-04-14T18:05:57.208Z,16.90
2018-04-14T18:08:25.214Z,16.80
2018-04-14T18:10:53.484Z,16.80
2018-04-14T18:13:21.000Z,16.80
2018-04-14T18:15:48.501Z,16.70
2018-04-14T18:18:16.031Z,16.70
2018-04-14T18:20:43.604Z,16.60
2018-04-14T18:23:11.136Z,16.50
2018-04-14T18:25:38.641Z,16.50
2018-04-14T18:28:06.166Z,16.50
2018-04-14T18:30:33.689Z,16.40
2018-04-14T18:33:01.266Z,16.40
2018-04-14T18:35:28.819Z,16.30
2018-04-14T18:37:57.087Z,16.30
2018-04-14T18:40:24.634Z,16.20
2018-04-14T18:42:52.172Z,16.20
2018-04-14T18:45:19.713Z,16.10
2018-04-14T18:47:48.006Z,15.90
2018-04-14T18:50:16.325Z,15.90
2018-04-14T18:52:43.854Z,15.90
2018-04-14T18:55:12.189Z,15.70
2018-04-14T18:57:39.715Z,15.70
2018-04-14T19:00:07.259Z,15.60
2018-04-14T19:02:34.790Z,15.50
2018-04-14T19:05:02.374Z,15.50
2018-04-14T19:07:29.893Z,15.40
2018-04-14T19:09:57.435Z,15.30
2018-04-14T19:12:24.958Z,15.20
2018-04-14T19:14:53.360Z,15.10
2018-04-14T19:17:20.875Z,15.10
2018-04-14T19:19:48.426Z,15.10
2018-04-14T19:22:15.968Z,15.00
2018-04-14T19:24:44.280Z,15.00
2018-04-14T19:27:11.832Z,15.00
2018-04-14T19:29:40.134Z,14.90
2018-04-14T19:32:07.643Z,14.90
2018-04-14T19:34:35.185Z,14.90
2018-04-14T19:37:02.753Z,14.80
2018-04-14T19:39:30.283Z,14.80
2018-04-14T19:41:57.838Z,14.70
2018-04-14T19:44:25.386Z,14.80
2018-04-14T19:46:52.943Z,14.80
2018-04-14T19:49:20.525Z,14.70
2018-04-14T19:51:48.095Z,14.70
2018-04-14T19:54:15.630Z,14.60
2018-04-14T19:56:43.154Z,14.60
2018-04-14T19:59:10.676Z,14.60
2018-04-14T20:01:39.008Z,14.40
2018-04-14T20:04:06.581Z,14.40
2018-04-14T20:06:34.108Z,14.30
2018-04-14T20:09:02.414Z,14.20
2018-04-14T20:11:29.958Z,14.20
2018-04-14T20:13:57.494Z,14.10
2018-04-14T20:16:25.084Z,14.10
2018-04-14T20:18:53.383Z,14.00
2018-04-14T20:21:20.917Z,13.90
2018-04-14T20:23:48.449Z,13.90
2018-04-14T20:26:16.745Z,13.90
2018-04-14T20:28:44.347Z,13.90
2018-04-14T20:31:11.923Z,13.90
2018-04-14T20:33:39.445Z,13.80
2018-04-14T20:36:06.994Z,13.80
2018-04-14T20:38:34.534Z,13.70
2018-04-14T20:41:02.096Z,13.70
2018-04-14T20:43:29.688Z,13.70
2018-04-14T20:45:57.195Z,13.80
2018-04-14T20:48:24.735Z,13.70
2018-04-14T20:50:52.357Z,13.70
2018-04-14T20:53:20.081Z,13.70
2018-04-14T20:55:47.931Z,13.70
2018-04-14T20:58:15.499Z,13.80
2018-04-14T21:00:43.080Z,13.80
2018-04-14T21:03:10.604Z,13.80
2018-04-14T21:05:38.223Z,13.80
2018-04-14T21:08:05.829Z,13.90
2018-04-14T21:10:33.349Z,13.90
2018-04-14T21:13:01.688Z,14.00
2018-04-14T21:15:29.214Z,14.00
2018-04-14T21:17:57.530Z,13.90
2018-04-14T21:20:25.051Z,13.80
2018-04-14T21:22:52.843Z,14.00
2018-04-14T21:25:20.463Z,14.10
2018-04-14T21:27:48.027Z,14.10
2018-04-14T21:30:15.551Z,14.10
2018-04-14T21:32:43.091Z,14.10
2018-04-14T21:35:10.601Z,14.10
2018-04-14T21:37:38.905Z,14.20
2018-04-14T21:40:07.176Z,14.20
2018-04-14T21:42:34.754Z,14.20
2018-04-14T21:45:03.056Z,14.40
2018-04-14T21:47:31.364Z,14.50
2018-04-14T21:49:58.933Z,14.50
2018-04-14T21:52:26.587Z,14.60
2018-04-14T21:54:54.870Z,14.70
2018-04-14T21:57:23.199Z,14.70
2018-04-14T21:59:50.740Z,14.70
2018-04-14T22:02:19.016Z,14.70
2018-04-14T22:04:48.284Z,14.60
2018-04-14T22:07:15.912Z,14.60
2018-04-14T22:09:44.332Z,14.60
2018-04-14T22:12:11.845Z,14.60
2018-04-14T22:14:39.373Z,14.60
2018-04-14T22:17:07.753Z,14.60
2018-04-14T22:19:35.295Z,14.60
2018-04-14T22:22:02.850Z,14.60
2018-04-14T22:24:30.385Z,14.60
2018-04-14T22:26:57.937Z,14.60
2018-04-14T22:29:25.492Z,14.60
2018-04-14T22:31:53.767Z,14.60
2018-04-14T22:34:21.316Z,14.60
2018-04-14T22:36:48.865Z,14.60
2018-04-14T22:39:16.409Z,14.60
2018-04-14T22:41:44.766Z,14.50
2018-04-14T22:44:12.361Z,14.50
2018-04-14T22:46:40.715Z,14.40
2018-04-14T22:49:08.239Z,14.30
2018-04-14T22:51:35.807Z,14.30
2018-04-14T22:54:04.149Z,14.00
2018-04-14T22:56:31.757Z,14.00
2018-04-14T22:59:00.093Z,13.90
2018-04-14T23:01:27.669Z,13.80
2018-04-14T23:03:55.208Z,13.80
2018-04-14T23:06:22.786Z,13.70
2018-04-14T23:08:50.399Z,13.60
2018-04-14T23:11:17.969Z,13.60
2018-04-14T23:13:45.539Z,13.50
2018-04-14T23:16:13.121Z,13.50
2018-04-14T23:18:40.677Z,13.50
2018-04-14T23:21:08.240Z,13.40
2018-04-14T23:23:35.825Z,13.40
2018-04-14T23:26:03.420Z,13.30
2018-04-14T23:28:31.751Z,13.30
2018-04-14T23:30:59.316Z,13.30
2018-04-14T23:33:27.648Z,13.30
2018-04-14T23:35:55.220Z,13.20
2018-04-14T23:38:22.755Z,13.20
2018-04-14T23:40:50.412Z,13.20
2018-04-14T23:43:18.707Z,13.20
2018-04-14T23:45:47.073Z,13.20
2018-04-14T23:48:14.637Z,13.20
2018-04-14T23:50:42.215Z,13.20
2018-04-14T23:53:10.008Z,13.20
2018-04-14T23:55:37.584Z,13.10
2018-04-14T23:58:05.135Z,13.10
